Time;durP1;ratioP1;P1;durP2;ratioP2;P2;SDS_P1;SDS_P2;PMS_P1;PMS_P2;Temp;Humidity;BMP_temperature;BMP_pressure;BME280_temperature;BME280_humidity;BME280_pressure;Samples;Min_cycle;Max_cycle;Signal;HPM_P1;HPM_P2
2022/09/12 00:01:15;;;;;;;3.40;2.40;;;;;;;9.24;83.16;99496.60;1659112;85;21014;-60
2022/09/12 00:03:43;;;;;;;4.25;1.57;;;;;;;9.15;83.11;99498.70;1659521;85;21169;-59
2022/09/12 00:06:18;;;;;;;2.22;1.90;;;;;;;9.12;83.24;99500.15;1682435;84;20969;-60
2022/09/12 00:08:45;;;;;;;4.17;2.15;;;;;;;9.10;83.06;99499.39;1680614;84;20997;-59
2022/09/12 00:11:12;;;;;;;1.98;1.77;;;;;;;9.08;83.04;99494.70;1668199;84;21960;-59
2022/09/12 00:13:41;;;;;;;3.77;2.33;;;;;;;9.03;83.06;99499.73;1648528;85;20981;-60
2022/09/12 00:16:19;;;;;;;3.50;1.85;;;;;;;9.01;83.24;99497.18;1668827;84;21049;-59
2022/09/12 00:18:45;;;;;;;6.62;2.75;;;;;;;8.98;83.39;99494.71;1674902;84;20915;-59
2022/09/12 00:21:12;;;;;;;2.75;1.87;;;;;;;8.98;83.31;99492.11;1650646;86;20948;-59
2022/09/12 00:23:39;;;;;;;3.15;2.15;;;;;;;8.94;83.28;99497.92;1672324;84;21042;-59
2022/09/12 00:26:06;;;;;;;5.47;1.87;;;;;;;8.90;83.25;99496.81;1673681;84;21454;-59
2022/09/12 00:28:36;;;;;;;5.67;2.67;;;;;;;8.86;83.45;99497.87;1671205;84;20944;-59
2022/09/12 00:31:09;;;;;;;3.33;2.17;;;;;;;8.79;83.32;99496.44;1670746;85;20959;-59
2022/09/12 00:33:36;;;;;;;3.55;2.02;;;;;;;8.73;83.43;99500.98;1669667;84;20970;-59
2022/09/12 00:36:07;;;;;;;6.20;2.22;;;;;;;8.71;83.70;99495.02;1670277;84;21531;-59
2022/09/12 00:38:37;;;;;;;3.02;2.15;;;;;;;8.71;83.68;99492.42;1682041;84;20939;-59
2022/09/12 00:41:02;;;;;;;5.55;1.70;;;;;;;8.68;83.73;99489.95;1680521;83;20918;-59
2022/09/12 00:43:42;;;;;;;6.70;1.95;;;;;;;8.61;83.89;99488.52;1677108;84;21547;-60
2022/09/12 00:46:14;;;;;;;8.80;2.20;;;;;;;8.61;84.06;99493.72;1661268;84;20982;-59
2022/09/12 00:48:46;;;;;;;3.87;2.00;;;;;;;8.60;83.95;99489.44;1676372;83;21467;-59
2022/09/12 00:51:14;;;;;;;4.70;1.80;;;;;;;8.60;84.23;99497.24;1677963;83;21520;-60
2022/09/12 00:53:43;;;;;;;3.92;2.15;;;;;;;8.56;84.09;99493.06;1677106;84;20961;-59
2022/09/12 00:56:11;;;;;;;2.47;1.87;;;;;;;8.52;84.10;99487.61;1677603;84;20966;-58
2022/09/12 00:58:46;;;;;;;10.23;3.02;;;;;;;8.48;84.03;99486.03;1665497;84;20902;-59
2022/09/12 01:01:13;;;;;;;11.43;2.60;;;;;;;8.45;84.27;99488.77;1676086;84;21135;-59
2022/09/12 01:03:40;;;;;;;5.25;1.98;;;;;;;8.46;84.31;99491.78;1681256;84;20970;-59
2022/09/12 01:06:21;;;;;;;2.85;1.90;;;;;;;8.43;84.29;99491.88;1671648;83;21522;-59
2022/09/12 01:08:49;;;;;;;6.75;2.33;;;;;;;8.40;84.09;99489.41;1677495;83;20946;-59
2022/09/12 01:11:17;;;;;;;5.15;2.42;;;;;;;8.36;84.17;99493.03;1675472;83;20943;-59
2022/09/12 01:13:45;;;;;;;6.65;2.33;;;;;;;8.34;84.31;99494.84;1693573;83;21818;-60
2022/09/12 01:16:12;;;;;;;4.05;2.22;;;;;;;8.30;84.34;99500.18;1695654;83;21424;-59
2022/09/12 01:19:19;;;;;;;7.10;2.42;;;;;;;8.26;84.50;99498.63;1677421;83;21916;-59
2022/09/12 01:22:23;;;;;;;4.37;2.30;;;;;;;8.22;84.50;99489.24;1692133;83;20946;-59
2022/09/12 01:25:39;;;;;;;7.03;2.12;;;;;;;8.19;84.79;99493.27;1686101;84;20973;-59
2022/09/12 01:28:14;;;;;;;4.50;2.93;;;;;;;8.23;85.04;99496.16;1704968;82;21126;-59
2022/09/12 01:31:01;;;;;;;3.25;2.08;;;;;;;8.16;84.86;99497.30;1692998;83;20985;-59
2022/09/12 01:33:48;;;;;;;3.40;2.25;;;;;;;8.11;84.99;99501.84;1692361;83;21465;-59
2022/09/12 01:36:23;;;;;;;4.92;2.20;;;;;;;8.04;84.72;99495.22;1702708;82;21247;-59
2022/09/12 01:39:04;;;;;;;3.25;2.10;;;;;;;7.96;84.77;99498.58;1696903;82;20938;-59
2022/09/12 01:41:49;;;;;;;5.67;2.40;;;;;;;7.91;84.74;99494.01;1683545;84;21219;-59
2022/09/12 01:44:36;;;;;;;6.03;2.42;;;;;;;7.87;84.93;99493.72;1690323;84;20952;-59
2022/09/12 01:47:09;;;;;;;;;;;;;;;7.79;84.83;99501.38;1713394;82;20906;-59
2022/09/12 01:49:40;;;;;;;3.65;2.10;;;;;;;7.72;85.09;99505.11;1695476;83;20099;-59
2022/09/12 01:52:27;;;;;;;3.50;2.20;;;;;;;7.69;85.06;99510.44;1665591;85;20967;-59
2022/09/12 01:55:14;;;;;;;4.53;2.17;;;;;;;7.63;85.15;99511.98;1684297;84;21073;-59
2022/09/12 01:57:55;;;;;;;4.03;2.75;;;;;;;7.62;85.43;99502.50;1698210;82;21519;-59
2022/09/12 02:00:21;;;;;;;4.30;2.70;;;;;;;7.59;85.38;99507.81;1696174;83;21452;-59
2022/09/12 02:03:17;;;;;;;4.45;2.22;;;;;;;7.54;85.57;99508.44;1701026;81;20981;-59
2022/09/12 02:05:49;;;;;;;6.12;2.77;;;;;;;7.60;85.83;99505.60;1702087;82;20963;-59
2022/09/12 02:08:26;;;;;;;3.90;2.98;;;;;;;7.60;85.67;99501.70;1709811;83;21140;-59
2022/09/12 02:11:07;;;;;;;6.08;2.40;;;;;;;7.54;85.46;99501.48;1690510;84;21442;-59
2022/09/12 02:13:51;;;;;;;9.95;2.80;;;;;;;7.51;85.54;99502.91;1718179;82;20950;-60
2022/09/12 02:16:31;;;;;;;5.45;2.47;;;;;;;7.44;85.43;99495.40;1704705;81;20895;-59
2022/09/12 02:19:12;;;;;;;3.80;2.15;;;;;;;7.38;85.31;99497.31;1713784;81;20950;-59
2022/09/12 02:21:42;;;;;;;2.98;2.50;;;;;;;7.32;85.35;99497.55;1685778;84;21122;-59
2022/09/12 02:24:12;;;;;;;6.58;2.83;;;;;;;7.30;85.70;99500.65;1692956;83;20903;-59
2022/09/12 02:26:55;;;;;;;4.87;2.52;;;;;;;7.27;85.75;99502.06;1696120;83;20922;-59
2022/09/12 02:29:22;;;;;;;6.15;2.62;;;;;;;7.28;85.87;99506.80;1694350;83;20966;-59
2022/09/12 02:31:59;;;;;;;4.27;2.17;;;;;;;7.22;85.68;99505.28;1689805;84;21512;-59
2022/09/12 02:34:48;;;;;;;6.37;2.58;;;;;;;7.19;85.76;99510.59;1702818;83;22441;-59
2022/09/12 02:37:34;;;;;;;3.77;2.37;;;;;;;7.15;85.67;99506.42;1700174;83;20914;-59
2022/09/12 02:40:01;;;;;;;4.20;2.20;;;;;;;7.10;85.79;99509.64;1700869;83;21499;-59
2022/09/12 02:42:28;;;;;;;4.05;3.00;;;;;;;7.08;85.87;99510.98;1699642;83;21134;-59
2022/09/12 02:44:56;;;;;;;4.77;2.67;;;;;;;7.09;86.08;99511.39;1701191;83;20978;-60
2022/09/12 02:48:12;;;;;;;4.17;2.55;;;;;;;7.09;86.08;99509.25;1694771;83;21124;-59
2022/09/12 02:50:39;;;;;;;3.70;2.60;;;;;;;7.08;86.10;99508.38;1698236;83;20882;-59
2022/09/12 02:53:08;;;;;;;3.75;2.40;;;;;;;7.04;86.01;99505.97;1694515;83;20903;-59
2022/09/12 02:55:37;;;;;;;5.10;2.52;;;;;;;7.04;86.29;99511.16;1704541;83;20902;-58
2022/09/12 02:58:09;;;;;;;3.55;2.67;;;;;;;7.04;86.31;99516.36;1688889;83;20998;-59
2022/09/12 03:00:52;;;;;;;4.87;2.87;;;;;;;7.03;86.33;99509.45;1699331;83;21070;-59
2022/09/12 03:03:36;;;;;;;4.85;3.25;;;;;;;7.02;86.22;99505.17;1688686;83;20966;-59
2022/09/12 03:06:17;;;;;;;7.45;3.10;;;;;;;6.93;86.03;99511.09;1716017;83;20894;-59
2022/09/12 03:09:14;;;;;;;4.17;2.87;;;;;;;6.82;85.97;99509.32;1673664;85;20958;-59
2022/09/12 03:12:11;;;;;;;;;;;;;;;6.76;86.07;99512.14;1665892;85;20977;-59
2022/09/12 03:14:52;;;;;;;4.33;2.72;;;;;;;6.71;86.05;99514.05;1645602;85;21189;-59
2022/09/12 03:17:34;;;;;;;6.17;3.42;;;;;;;6.67;86.32;99518.95;1663828;85;20949;-59
2022/09/12 03:20:11;;;;;;;5.58;3.15;;;;;;;6.62;85.90;99516.96;1642785;85;21060;-59
2022/09/12 03:22:56;;;;;;;5.65;3.20;;;;;;;6.47;85.80;99514.00;1652260;85;20898;-59
2022/09/12 03:25:28;;;;;;;7.17;4.33;;;;;;;6.43;86.03;99517.58;1666699;85;20994;-59
2022/09/12 03:28:11;;;;;;;7.72;3.92;;;;;;;6.40;86.18;99520.27;1678839;85;21061;-59
2022/09/12 03:30:44;;;;;;;7.85;4.12;;;;;;;6.41;86.21;99527.17;1658892;85;20954;-59
2022/09/12 03:33:14;;;;;;;7.12;3.10;;;;;;;6.34;86.11;99523.08;1657395;86;21507;-58
2022/09/12 03:35:41;;;;;;;6.58;3.17;;;;;;;6.28;86.15;99525.88;1644932;86;21003;-59
2022/09/12 03:38:08;;;;;;;7.58;3.60;;;;;;;6.22;86.04;99528.67;1650966;85;21672;-59
2022/09/12 03:40:37;;;;;;;5.55;3.27;;;;;;;6.13;85.97;99529.80;1667806;85;23303;-59
2022/09/12 03:43:06;;;;;;;5.67;3.52;;;;;;;6.07;86.05;99531.75;1667234;85;20907;-59
2022/09/12 03:45:34;;;;;;;6.72;3.77;;;;;;;6.00;86.16;99534.53;1657266;85;21104;-59
2022/09/12 03:48:01;;;;;;;8.13;3.80;;;;;;;5.95;86.16;99533.83;1694314;83;21033;-59
2022/09/12 03:50:29;;;;;;;10.88;4.90;;;;;;;5.88;86.13;99536.20;1694960;84;21005;-58
2022/09/12 03:53:01;;;;;;;13.30;4.42;;;;;;;5.82;86.17;99537.66;1696800;83;21081;-59
2022/09/12 03:55:28;;;;;;;7.00;3.95;;;;;;;5.78;86.31;99541.25;1673265;85;20938;-59
2022/09/12 03:57:55;;;;;;;5.60;4.20;;;;;;;5.76;86.54;99540.44;1690758;84;21465;-59
2022/09/12 04:00:22;;;;;;;7.55;3.47;;;;;;;5.78;86.78;99542.55;1697041;84;21504;-59
2022/09/12 04:02:55;;;;;;;8.28;4.30;;;;;;;5.78;86.74;99539.95;1694124;84;20918;-59
2022/09/12 04:05:23;;;;;;;7.50;3.40;;;;;;;5.76;86.63;99545.63;1698601;84;21059;-59
2022/09/12 04:07:51;;;;;;;6.20;4.17;;;;;;;5.71;86.63;99541.86;1665635;85;21509;-59
2022/09/12 04:10:17;;;;;;;5.97;3.83;;;;;;;5.70;86.84;99548.41;1656000;85;20948;-59
2022/09/12 04:12:44;;;;;;;7.97;4.43;;;;;;;5.69;86.75;99542.83;1676327;84;21510;-59
2022/09/12 04:15:11;;;;;;;7.22;4.45;;;;;;;5.70;86.93;99545.81;1712188;83;20906;-58
2022/09/12 04:17:38;;;;;;;6.72;3.92;;;;;;;5.68;86.79;99547.14;1693673;84;21149;-59
2022/09/12 04:20:06;;;;;;;6.30;3.60;;;;;;;5.67;86.64;99551.09;1693531;84;20969;-59
2022/09/12 04:22:32;;;;;;;6.90;3.77;;;;;;;5.60;86.49;99549.98;1693645;83;20891;-59
2022/09/12 04:24:59;;;;;;;9.43;4.15;;;;;;;5.58;86.65;99550.47;1697575;83;20898;-59
2022/09/12 04:27:26;;;;;;;7.95;4.70;;;;;;;5.57;86.76;99551.37;1698956;82;21594;-59
2022/09/12 04:29:54;;;;;;;13.98;5.78;;;;;;;5.74;87.22;99547.40;1701615;82;21045;-59
2022/09/12 04:32:21;;;;;;;10.15;5.78;;;;;;;5.95;87.10;99551.97;1707192;82;20954;-59
2022/09/12 04:34:48;;;;;;;9.88;4.62;;;;;;;6.23;87.43;99554.99;1696638;84;20942;-59
2022/09/12 04:37:15;;;;;;;7.65;4.53;;;;;;;6.54;86.81;99547.50;1690309;82;21337;-59
2022/09/12 04:39:42;;;;;;;;;;;;;;;6.47;86.17;99554.20;1694893;83;20903;-59
2022/09/12 04:42:09;;;;;;;;;;;;;;;6.56;86.62;99552.20;1700946;84;21028;-59
2022/09/12 04:44:36;;;;;;;9.30;4.95;;;;;;;6.88;86.95;99555.81;1680262;84;20104;-59
2022/09/12 04:47:03;;;;;;;13.35;4.28;;;;;;;7.66;87.71;99546.94;1695376;84;20950;-59
2022/09/12 04:49:30;;;;;;;11.50;4.50;;;;;;;8.46;87.11;99551.16;1696947;84;21479;-59
2022/09/12 04:51:56;;;;;;;7.33;3.63;;;;;;;9.26;86.80;99553.40;1696335;83;20993;-59
2022/09/12 04:54:23;;;;;;;5.87;2.37;;;;;;;10.01;86.03;99555.16;1709371;83;20983;-60
2022/09/12 04:56:51;;;;;;;3.73;2.57;;;;;;;10.67;85.60;99551.95;1701005;84;21712;-60
2022/09/12 04:59:20;;;;;;;6.75;2.50;;;;;;;12.12;85.16;99538.14;1700676;84;20931;-60
2022/09/12 05:01:49;;;;;;;12.10;3.00;;;;;;;12.12;85.16;99538.14;1687273;84;21005;-60
2022/09/12 05:04:15;;;;;;;4.72;2.45;;;;;;;12.80;85.17;99544.71;1700679;84;20974;-60
2022/09/12 05:06:43;;;;;;;7.58;2.90;;;;;;;13.61;85.02;99544.59;1719709;81;21795;-60
2022/09/12 05:09:12;;;;;;;11.33;2.90;;;;;;;14.33;84.71;99540.43;1716116;83;20954;-60
2022/09/12 05:11:42;;;;;;;9.98;2.83;;;;;;;14.68;83.40;99537.30;1688462;83;20943;-60
2022/09/12 05:14:10;;;;;;;9.85;2.37;;;;;;;15.05;83.95;99540.05;1695631;83;20957;-60
2022/09/12 05:16:37;;;;;;;6.80;2.10;;;;;;;15.29;82.48;99543.63;1702781;83;20911;-60
2022/09/12 05:19:05;;;;;;;6.55;2.05;;;;;;;15.38;82.03;99539.03;1698280;83;21125;-60
2022/09/12 05:21:32;;;;;;;4.35;2.22;;;;;;;15.52;82.17;99535.91;1691610;83;20907;-60
2022/09/12 05:23:58;;;;;;;3.55;2.30;;;;;;;15.75;82.07;99537.77;1657343;85;20926;-61
2022/09/12 05:26:25;;;;;;;;;;;;;;;16.08;82.13;99541.55;1717725;83;20958;-61
2022/09/12 05:28:52;;;;;;;6.53;2.95;;;;;;;16.50;81.15;99536.70;1689354;83;20129;-61
2022/09/12 05:31:26;;;;;;;;;;;;;;;16.54;80.21;99543.41;1716450;83;21182;-61
2022/09/12 05:33:54;;;;;;;9.05;5.25;;;;;;;16.80;80.33;99540.64;1694627;83;20114;-60
2022/09/12 05:36:26;;;;;;;13.28;7.58;;;;;;;17.07;81.67;99538.53;1685325;84;20970;-61
2022/09/12 05:38:53;;;;;;;13.25;7.05;;;;;;;17.60;82.43;99540.58;1670391;85;20966;-61
2022/09/12 05:41:26;;;;;;;11.28;5.70;;;;;;;18.15;82.25;99540.59;1711753;83;20922;-61
2022/09/12 05:43:56;;;;;;;7.12;4.15;;;;;;;18.50;81.27;99543.83;1704351;81;21097;-61
2022/09/12 05:46:27;;;;;;;7.95;4.60;;;;;;;18.96;81.40;99538.69;1712874;82;20969;-60
2022/09/12 05:48:55;;;;;;;9.20;4.60;;;;;;;19.47;81.52;99534.81;1685523;84;21421;-60
2022/09/12 05:51:27;;;;;;;8.65;5.50;;;;;;;19.95;81.16;99536.78;1675439;84;20922;-60
2022/09/12 05:53:58;;;;;;;10.38;4.90;;;;;;;20.12;79.52;99538.75;1673965;84;21492;-61
2022/09/12 05:56:31;;;;;;;7.42;3.80;;;;;;;20.18;79.04;99542.66;1688844;84;21070;-61
2022/09/12 05:59:04;;;;;;;11.22;5.03;;;;;;;20.41;79.77;99549.36;1698700;83;21908;-61
2022/09/12 06:01:33;;;;;;;5.10;3.30;;;;;;;20.69;79.34;99550.35;1716348;83;20867;-62
2022/09/12 06:04:03;;;;;;;6.72;3.00;;;;;;;21.15;79.37;99550.06;1689930;83;20949;-62
2022/09/12 06:06:31;;;;;;;7.97;3.20;;;;;;;21.32;78.82;99551.63;1712712;83;21460;-62
2022/09/12 06:09:01;;;;;;;3.10;2.60;;;;;;;21.60;79.14;99550.69;1702699;83;21044;-62
2022/09/12 06:11:32;;;;;;;5.83;2.60;;;;;;;21.92;78.25;99544.06;1698436;82;20978;-62
2022/09/12 06:14:00;;;;;;;3.67;2.22;;;;;;;21.73;77.14;99553.48;1701100;83;20930;-61
2022/09/12 06:16:32;;;;;;;2.67;1.70;;;;;;;21.90;77.16;99554.00;1699725;83;21524;-61
2022/09/12 06:19:04;;;;;;;6.87;1.10;;;;;;;22.03;76.69;99557.14;1704061;82;20930;-61
2022/09/12 06:21:36;;;;;;;7.45;1.70;;;;;;;21.81;74.89;99559.72;1717482;82;21095;-60
2022/09/12 06:24:06;;;;;;;5.25;1.55;;;;;;;21.31;73.70;99552.59;1712368;82;20986;-62
2022/09/12 06:26:33;;;;;;;4.00;1.60;;;;;;;21.09;74.26;99557.28;1707200;82;20970;-64
2022/09/12 06:29:01;;;;;;;6.47;1.80;;;;;;;20.76;73.28;99555.45;1706998;82;21447;-61
2022/09/12 06:31:37;;;;;;;3.22;1.37;;;;;;;20.64;74.12;99557.92;1711536;81;21519;-62
2022/09/12 06:34:06;;;;;;;6.20;1.20;;;;;;;20.67;74.09;99557.64;1711779;83;20969;-62
2022/09/12 06:36:41;;;;;;;2.58;1.30;;;;;;;20.92;73.80;99563.30;1713057;82;20923;-62
2022/09/12 06:39:12;;;;;;;3.00;1.20;;;;;;;20.65;71.32;99553.45;1715658;81;20926;-61
2022/09/12 06:41:39;;;;;;;3.25;1.20;;;;;;;20.06;71.81;99560.52;1717326;82;21766;-61
2022/09/12 06:44:06;;;;;;;2.40;1.02;;;;;;;19.80;71.33;99567.64;1682847;84;20946;-61
2022/09/12 06:46:32;;;;;;;;;;;;;;;19.79;72.40;99559.33;1698717;82;21167;-61
2022/09/12 06:49:02;;;;;;;2.10;1.25;;;;;;;19.59;70.28;99566.83;1696741;82;20099;-61
2022/09/12 06:51:29;;;;;;;2.83;1.07;;;;;;;19.30;70.36;99566.23;1697999;82;21492;-61
2022/09/12 06:53:56;;;;;;;4.35;1.65;;;;;;;19.22;70.59;99572.66;1696214;82;20921;-61
2022/09/12 06:56:26;;;;;;;3.70;1.20;;;;;;;19.23;70.54;99570.36;1690784;83;21041;-62
2022/09/12 06:58:56;;;;;;;4.22;1.20;;;;;;;19.31;71.13;99567.90;1698183;83;21024;-62
2022/09/12 07:01:30;;;;;;;2.72;1.00;;;;;;;19.84;72.01;99570.36;1694172;82;20989;-61
2022/09/12 07:03:59;;;;;;;2.52;1.20;;;;;;;19.95;69.48;99567.25;1697186;83;20913;-61
2022/09/12 07:06:34;;;;;;;1.98;1.12;;;;;;;19.30;67.01;99568.88;1692974;83;20871;-61
2022/09/12 07:09:00;;;;;;;4.45;1.30;;;;;;;18.31;66.33;99568.77;1686881;83;20970;-60
2022/09/12 07:11:33;;;;;;;2.22;0.93;;;;;;;17.72;67.43;99575.72;1712679;82;21009;-59
2022/09/12 07:14:03;;;;;;;3.58;1.77;;;;;;;17.23;66.99;99585.69;1712959;82;20945;-62
2022/09/12 07:16:31;;;;;;;6.45;1.40;;;;;;;16.80;68.70;99585.46;1687779;83;20966;-61
2022/09/12 07:19:00;;;;;;;4.65;1.30;;;;;;;16.34;68.30;99583.94;1688474;83;20938;-60
2022/09/12 07:21:28;;;;;;;3.92;1.55;;;;;;;16.26;69.04;99586.29;1690615;83;20966;-60
2022/09/12 07:23:56;;;;;;;4.40;1.37;;;;;;;16.32;69.48;99588.95;1700938;83;21068;-60
2022/09/12 07:26:26;;;;;;;2.30;1.15;;;;;;;16.33;69.22;99587.54;1693887;83;21472;-59
2022/09/12 07:28:54;;;;;;;3.67;1.40;;;;;;;16.27;68.93;99587.99;1696133;82;21500;-60
2022/09/12 07:31:26;;;;;;;1.62;1.00;;;;;;;16.03;68.16;99589.77;1697687;83;20943;-60
2022/09/12 07:33:53;;;;;;;2.33;1.02;;;;;;;15.87;68.70;99597.42;1670776;83;21007;-60
2022/09/12 07:36:24;;;;;;;3.58;1.42;;;;;;;15.69;68.30;99596.11;1693533;83;20954;-60
2022/09/12 07:38:56;;;;;;;4.75;1.40;;;;;;;15.65;68.76;99599.86;1675584;84;20866;-60
2022/09/12 07:41:27;;;;;;;2.00;1.15;;;;;;;15.73;69.13;99600.20;1672176;84;21496;-59
2022/09/12 07:43:56;;;;;;;1.47;0.90;;;;;;;15.79;69.02;99602.39;1717539;83;20973;-59
2022/09/12 07:46:24;;;;;;;1.30;0.90;;;;;;;15.94;69.26;99606.23;1662319;84;21013;-60
2022/09/12 07:48:53;;;;;;;4.22;1.05;;;;;;;16.02;68.14;99602.55;1700104;82;21101;-62
2022/09/12 07:51:21;;;;;;;2.50;1.17;;;;;;;16.09;69.71;99607.75;1703611;82;20903;-61
2022/09/12 07:53:48;;;;;;;4.22;1.00;;;;;;;16.27;69.51;99605.12;1698218;83;20934;-60
2022/09/12 07:56:15;;;;;;;;;;;;;;;16.37;67.70;99608.39;1702037;83;20910;-61
2022/09/12 07:58:44;;;;;;;2.85;0.90;;;;;;;16.12;67.39;99611.48;1703461;83;20102;-61
2022/09/12 08:01:18;;;;;;;3.42;0.93;;;;;;;16.10;67.64;99610.73;1691240;83;21042;-61
2022/09/12 08:03:48;;;;;;;0.85;0.60;;;;;;;15.91;67.02;99615.63;1690049;83;20930;-61
2022/09/12 08:06:23;;;;;;;1.50;0.80;;;;;;;15.87;66.02;99615.02;1687782;84;21460;-61
2022/09/12 08:08:53;;;;;;;4.58;1.07;;;;;;;15.85;66.18;99614.28;1707831;83;20895;-60
2022/09/12 08:11:27;;;;;;;1.77;0.70;;;;;;;15.99;66.83;99615.94;1693695;83;20884;-60
2022/09/12 08:13:56;;;;;;;3.75;0.78;;;;;;;16.10;66.93;99619.95;1684162;84;21179;-61
2022/09/12 08:16:28;;;;;;;1.20;0.55;;;;;;;16.19;66.78;99618.45;1691417;84;20961;-60
2022/09/12 08:18:56;;;;;;;2.02;0.72;;;;;;;16.31;66.56;99617.10;1697185;83;20950;-60
2022/09/12 08:21:28;;;;;;;2.75;0.90;;;;;;;16.15;63.94;99616.52;1687899;83;20989;-61
2022/09/12 08:23:59;;;;;;;1.47;0.75;;;;;;;16.08;65.86;99623.20;1690107;82;20918;-61
2022/09/12 08:26:27;;;;;;;2.05;0.98;;;;;;;16.15;64.36;99616.52;1688080;84;21066;-63
2022/09/12 08:28:55;;;;;;;3.08;0.88;;;;;;;15.92;63.32;99621.28;1704728;82;20871;-61
2022/09/12 08:31:23;;;;;;;1.20;0.65;;;;;;;15.87;62.86;99623.75;1706695;83;20909;-61
2022/09/12 08:33:51;;;;;;;1.90;0.65;;;;;;;15.95;64.08;99630.28;1711222;82;20909;-61
2022/09/12 08:36:20;;;;;;;;;;;;;;;15.86;63.93;99629.98;1717879;83;21037;-61
2022/09/12 08:38:51;;;;;;;1.20;0.70;;;;;;;16.05;65.08;99620.78;1708839;82;21139;-61
2022/09/12 08:41:33;;;;;;;2.15;0.70;;;;;;;16.23;63.47;99616.81;1708866;83;21474;-61
2022/09/12 08:44:26;;;;;;;1.35;0.60;;;;;;;16.52;65.65;99620.43;1711444;82;21051;-61
2022/09/12 08:47:28;;;;;;;1.52;0.65;;;;;;;16.87;63.51;99630.20;1710487;83;20902;-60
2022/09/12 08:50:16;;;;;;;2.22;0.80;;;;;;;16.85;64.23;99623.71;1714331;83;20957;-61
2022/09/12 08:53:01;;;;;;;2.85;0.82;;;;;;;16.96;64.74;99624.23;1682965;83;21503;-61
2022/09/12 08:55:39;;;;;;;3.90;1.00;;;;;;;17.05;62.76;99624.84;1690932;83;20969;-60
2022/09/12 08:58:18;;;;;;;3.75;0.68;;;;;;;17.17;64.36;99623.10;1699413;83;21474;-60
2022/09/12 09:01:20;;;;;;;2.77;0.90;;;;;;;17.36;64.01;99626.47;1688667;83;21002;-60
2022/09/12 09:04:20;;;;;;;2.52;0.65;;;;;;;17.38;63.74;99625.88;1680628;83;21550;-61
2022/09/12 09:07:01;;;;;;;2.98;0.70;;;;;;;17.11;61.52;99624.86;1714751;83;21466;-61
2022/09/12 09:09:48;;;;;;;2.12;0.70;;;;;;;17.00;63.51;99616.47;1701793;82;21389;-61
2022/09/12 09:12:44;;;;;;;1.20;0.80;;;;;;;16.61;61.23;99627.68;1691302;84;23025;-61
2022/09/12 09:15:37;;;;;;;1.57;0.68;;;;;;;16.26;60.79;99631.08;1682278;84;20953;-61
2022/09/12 09:18:18;;;;;;;1.15;0.60;;;;;;;16.28;60.53;99618.64;1664260;85;21044;-60
2022/09/12 09:21:10;;;;;;;2.98;0.70;;;;;;;16.46;60.59;99622.20;1665572;85;21726;-60
2022/09/12 09:23:43;;;;;;;0.98;0.55;;;;;;;16.40;59.85;99626.13;1697861;83;21006;-61
2022/09/12 09:26:15;;;;;;;0.98;0.50;;;;;;;16.50;61.06;99628.95;1697796;83;21492;-61
2022/09/12 09:28:50;;;;;;;1.12;0.62;;;;;;;16.49;59.93;99624.61;1695195;83;20950;-60
2022/09/12 09:31:24;;;;;;;1.42;0.60;;;;;;;16.68;60.49;99627.57;1696426;83;20902;-61
2022/09/12 09:33:58;;;;;;;0.65;0.50;;;;;;;16.85;60.18;99633.42;1695048;83;21053;-60
2022/09/12 09:37:07;;;;;;;1.50;0.70;;;;;;;17.01;59.30;99626.05;1691545;83;20907;-60
2022/09/12 09:40:16;;;;;;;4.50;1.00;;;;;;;17.10;60.04;99630.63;1697503;83;21444;-60
2022/09/12 09:43:09;;;;;;;0.80;0.55;;;;;;;16.82;60.85;99628.38;1693489;83;21013;-61
2022/09/12 09:45:37;;;;;;;1.85;0.72;;;;;;;16.78;61.11;99628.61;1697110;83;21455;-61
2022/09/12 09:48:24;;;;;;;2.58;0.80;;;;;;;17.08;61.50;99631.20;1695378;83;21777;-60
2022/09/12 09:50:52;;;;;;;;;;;;;;;17.11;60.32;99636.73;1680262;84;21009;-60
2022/09/12 09:53:45;;;;;;;1.25;0.50;;;;;;;16.97;58.67;99640.41;1644551;85;20119;-61
2022/09/12 09:56:34;;;;;;;0.90;0.60;;;;;;;16.97;60.90;99637.77;1676105;85;20923;-60
2022/09/12 09:59:28;;;;;;;2.98;0.60;;;;;;;17.10;60.16;99641.17;1675596;85;20974;-61
2022/09/12 10:02:05;;;;;;;4.08;0.75;;;;;;;17.16;60.02;99639.38;1698716;83;21063;-60
2022/09/12 10:04:34;;;;;;;;;;;;;;;17.12;60.43;99628.71;1683513;84;20968;-61
2022/09/12 10:07:03;;;;;;;5.20;0.80;;;;;;;17.32;60.26;99632.95;1683867;84;20127;-61
2022/09/12 10:09:33;;;;;;;1.77;0.57;;;;;;;17.30;59.85;99630.91;1702811;83;20945;-61
2022/09/12 10:12:05;;;;;;;1.30;0.47;;;;;;;17.23;60.04;99634.02;1698742;83;20982;-60
2022/09/12 10:14:39;;;;;;;1.22;0.57;;;;;;;17.10;56.86;99638.53;1709267;82;22458;-61
2022/09/12 10:17:28;;;;;;;2.58;0.60;;;;;;;17.07;58.11;99633.49;1687572;84;21606;-61
2022/09/12 10:19:57;;;;;;;1.95;0.60;;;;;;;17.16;57.64;99642.02;1702918;82;20978;-60
2022/09/12 10:22:29;;;;;;;0.62;0.42;;;;;;;17.02;57.41;99633.00;1707149;82;21033;-60
2022/09/12 10:25:00;;;;;;;0.80;0.50;;;;;;;16.95;57.67;99639.70;1685117;83;20919;-61
2022/09/12 10:27:32;;;;;;;1.87;0.85;;;;;;;16.82;57.95;99630.53;1712594;83;21093;-60
2022/09/12 10:30:06;;;;;;;1.25;0.62;;;;;;;17.01;58.42;99633.96;1711320;83;20950;-61
2022/09/12 10:32:44;;;;;;;1.00;0.60;;;;;;;16.97;57.36;99629.86;1712238;82;20962;-61
2022/09/12 10:35:19;;;;;;;1.15;0.50;;;;;;;16.83;56.71;99620.34;1714957;82;20915;-60
2022/09/12 10:37:59;;;;;;;1.25;0.55;;;;;;;17.01;57.68;99620.77;1705251;81;21645;-61
2022/09/12 10:40:31;;;;;;;2.08;0.80;;;;;;;16.97;58.23;99625.45;1720147;81;21058;-60
2022/09/12 10:42:59;;;;;;;2.20;0.70;;;;;;;16.91;58.40;99624.56;1710033;83;21478;-61
2022/09/12 10:45:32;;;;;;;1.17;0.82;;;;;;;17.07;59.09;99617.67;1709721;82;21473;-61
2022/09/12 10:48:01;;;;;;;2.47;0.60;;;;;;;17.38;59.11;99625.88;1710339;83;21468;-61
2022/09/12 10:50:45;;;;;;;2.25;0.60;;;;;;;17.02;55.76;99618.48;1710091;83;20918;-60
2022/09/12 10:53:20;;;;;;;1.55;0.50;;;;;;;16.73;57.67;99618.02;1715059;83;21037;-61
2022/09/12 10:56:04;;;;;;;3.10;0.50;;;;;;;16.65;57.60;99621.70;1713780;83;20891;-60
2022/09/12 10:59:25;;;;;;;1.47;0.62;;;;;;;16.81;57.85;99626.72;1681449;83;20915;-61
2022/09/12 11:02:14;;;;;;;1.20;0.60;;;;;;;16.90;56.95;99616.30;1696336;83;21471;-60
2022/09/12 11:05:01;;;;;;;1.45;0.50;;;;;;;17.16;57.77;99635.42;1691443;83;21523;-60
2022/09/12 11:07:41;;;;;;;1.50;0.57;;;;;;;17.13;56.89;99625.11;1609438;87;22218;-60
2022/09/12 11:10:34;;;;;;;1.37;0.60;;;;;;;16.76;55.60;99627.87;1633787;86;21015;-62
2022/09/12 11:13:27;;;;;;;2.67;0.70;;;;;;;16.52;55.50;99634.92;1635296;85;21062;-60
2022/09/12 11:16:31;;;;;;;0.88;0.50;;;;;;;16.30;55.98;99631.23;1635810;87;20972;-60
2022/09/12 11:19:21;;;;;;;1.87;0.90;;;;;;;16.22;57.05;99627.00;1635520;86;21123;-61
2022/09/12 11:22:24;;;;;;;1.37;0.53;;;;;;;16.47;56.92;99634.45;1634820;86;21090;-60
2022/09/12 11:25:18;;;;;;;2.10;0.70;;;;;;;16.80;57.23;99625.02;1635494;86;21517;-61
2022/09/12 11:28:07;;;;;;;2.55;0.55;;;;;;;17.15;57.45;99627.64;1636330;86;21021;-61
2022/09/12 11:30:42;;;;;;;1.05;0.60;;;;;;;17.09;55.86;99631.59;1617699;87;20939;-60
2022/09/12 11:33:41;;;;;;;1.05;0.40;;;;;;;16.55;54.77;99640.83;1616153;88;20966;-60
2022/09/12 11:36:34;;;;;;;1.62;0.50;;;;;;;16.38;56.38;99631.97;1636033;87;21219;-60
2022/09/12 11:39:14;;;;;;;2.25;0.60;;;;;;;16.50;56.62;99626.31;1635138;87;21427;-60
2022/09/12 11:41:47;;;;;;;0.55;0.50;;;;;;;16.68;56.14;99629.38;1628162;86;21540;-60
2022/09/12 11:44:34;;;;;;;2.05;0.72;;;;;;;16.72;56.21;99636.95;1659217;83;20965;-61
2022/09/12 11:47:09;;;;;;;2.45;0.80;;;;;;;16.68;56.14;99638.12;1704240;82;20974;-60
2022/09/12 11:49:49;;;;;;;1.37;0.40;;;;;;;16.86;56.73;99629.82;1716795;83;21865;-61
2022/09/12 11:52:24;;;;;;;2.40;1.15;;;;;;;17.03;56.10;99636.02;1686343;83;20883;-62
2022/09/12 11:55:17;;;;;;;2.40;0.62;;;;;;;17.07;55.86;99633.49;1693876;82;20956;-61
2022/09/12 11:57:57;;;;;;;1.07;0.50;;;;;;;17.09;56.22;99655.33;1690756;83;21584;-61
2022/09/12 12:00:37;;;;;;;1.15;0.50;;;;;;;16.89;55.33;99634.89;1689471;84;20979;-61
2022/09/12 12:03:15;;;;;;;0.82;0.53;;;;;;;16.46;54.97;99643.28;1689749;83;21007;-61
2022/09/12 12:05:50;;;;;;;2.05;0.57;;;;;;;16.46;56.06;99640.64;1691432;83;21067;-61
2022/09/12 12:08:18;;;;;;;2.12;0.60;;;;;;;16.70;55.89;99633.58;1711987;83;20958;-61
2022/09/12 12:11:02;;;;;;;1.55;0.55;;;;;;;16.92;55.97;99637.30;1705777;83;20997;-61
2022/09/12 12:13:48;;;;;;;0.85;0.40;;;;;;;17.00;56.11;99632.30;1696547;83;20947;-60
2022/09/12 12:16:37;;;;;;;3.72;0.50;;;;;;;17.08;55.99;99640.44;1667559;85;21115;-61